Time;durP1;ratioP1;P1;durP2;ratioP2;P2;SDS_P1;SDS_P2;PMS_P1;PMS_P2;Temp;Humidity;BMP_temperature;BMP_pressure;BME280_temperature;BME280_humidity;BME280_pressure;Samples;Min_cycle;Max_cycle;Signal;HPM_P1;HPM_P2
2022/03/25 00:01:17;;;;;;;41.70;25.60;;;;;;;1.27;65.16;101519.04;88052;1279;99131;-66
2022/03/25 00:03:26;;;;;;;41.20;24.90;;;;;;;1.27;65.14;101523.30;88072;1278;87887;-64
2022/03/25 00:05:36;;;;;;;39.80;24.50;;;;;;;1.24;65.18;101524.50;88038;1278;95265;-64
2022/03/25 00:07:48;;;;;;;38.00;25.10;;;;;;;1.18;65.11;101521.52;88080;1278;79331;-64
2022/03/25 00:10:00;;;;;;;42.30;26.80;;;;;;;1.14;65.48;101522.70;88065;1279;80942;-63
2022/03/25 00:12:11;;;;;;;43.00;26.30;;;;;;;1.07;65.31;101526.35;88073;1279;99671;-64
2022/03/25 00:14:23;;;;;;;37.60;24.30;;;;;;;1.03;65.41;101521.32;88085;1279;88698;-65
2022/03/25 00:16:32;;;;;;;43.00;26.40;;;;;;;0.94;65.76;101525.98;88066;1278;95742;-65
2022/03/25 00:18:41;;;;;;;40.10;26.00;;;;;;;0.90;65.63;101526.47;88074;1278;76915;-66
2022/03/25 00:20:50;;;;;;;36.50;24.50;;;;;;;0.85;65.68;101525.53;88068;1279;82407;-66
2022/03/25 00:23:03;;;;;;;39.50;25.30;;;;;;;0.81;65.75;101526.34;88109;1277;97781;-65
2022/03/25 00:25:13;;;;;;;46.40;25.50;;;;;;;0.76;65.98;101522.57;88074;1278;87718;-66
2022/03/25 00:27:26;;;;;;;40.20;25.10;;;;;;;0.73;66.10;101520.67;88062;1278;95315;-67
2022/03/25 00:29:38;;;;;;;40.70;25.00;;;;;;;0.70;65.97;101519.98;88075;1278;80202;-68
2022/03/25 00:31:50;;;;;;;40.90;25.30;;;;;;;0.72;66.02;101521.95;88045;1277;79787;-67
2022/03/25 00:34:01;;;;;;;43.80;25.40;;;;;;;0.75;66.18;101523.70;88049;1277;100019;-67
2022/03/25 00:36:14;;;;;;;42.90;25.30;;;;;;;0.75;66.44;101521.77;88098;1277;89073;-67
2022/03/25 00:38:23;;;;;;;40.80;26.40;;;;;;;0.75;66.50;101518.59;88093;1278;94559;-63
2022/03/25 00:40:32;;;;;;;46.90;28.00;;;;;;;0.76;66.56;101515.14;88070;1278;78886;-64
2022/03/25 00:42:44;;;;;;;40.50;26.50;;;;;;;0.74;66.78;101514.95;88077;1278;83155;-63
2022/03/25 00:44:56;;;;;;;44.80;27.60;;;;;;;0.76;66.61;101511.92;88106;1278;98235;-64
2022/03/25 00:47:06;;;;;;;43.50;27.10;;;;;;;0.78;66.67;101512.73;88066;1278;89016;-66
2022/03/25 00:49:18;;;;;;;41.50;26.50;;;;;;;0.75;66.65;101510.96;88065;1277;95178;-67
2022/03/25 00:51:31;;;;;;;40.30;27.10;;;;;;;0.68;66.55;101506.50;88044;1278;79913;-66
2022/03/25 00:53:43;;;;;;;42.90;27.00;;;;;;;0.62;66.75;101510.41;88083;1279;80851;-66
2022/03/25 00:55:52;;;;;;;41.70;26.90;;;;;;;0.57;66.76;101505.90;88068;1278;99767;-67
2022/03/25 00:58:05;;;;;;;41.90;26.30;;;;;;;0.51;66.87;101506.80;88083;1278;87932;-65
2022/03/25 01:00:15;;;;;;;33.50;20.90;;;;;;;0.47;66.81;101503.39;88058;1279;93468;-67
2022/03/25 01:02:24;;;;;;;41.20;26.60;;;;;;;0.45;67.04;101501.70;88077;1278;80421;-67
2022/03/25 01:04:36;;;;;;;44.70;27.90;;;;;;;0.45;67.07;101502.75;88059;1278;82517;-64
2022/03/25 01:06:55;;;;;;;42.00;25.60;;;;;;;0.48;67.27;101499.55;88046;1278;100206;-64
2022/03/25 01:09:07;;;;;;;44.60;27.40;;;;;;;0.54;67.33;101498.63;88075;1278;88350;-64
2022/03/25 01:11:27;;;;;;;40.50;25.90;;;;;;;0.54;67.32;101498.98;88081;1278;93419;-64
2022/03/25 01:13:37;;;;;;;42.00;26.80;;;;;;;0.50;67.55;101505.64;88047;1279;80117;-64
2022/03/25 01:15:46;;;;;;;39.30;27.50;;;;;;;0.49;67.59;101503.05;88076;1278;83216;-65
2022/03/25 01:17:55;;;;;;;47.90;28.90;;;;;;;0.46;67.57;101504.86;88059;1278;98573;-63
2022/03/25 01:20:05;;;;;;;45.60;28.80;;;;;;;0.45;67.67;101505.94;88059;1279;87485;-68
2022/03/25 01:22:14;;;;;;;42.20;27.40;;;;;;;0.41;67.47;101505.17;88041;1279;95598;-67
2022/03/25 01:24:47;;;;;;;43.40;28.70;;;;;;;0.31;67.64;101502.98;88091;1278;77940;-63
2022/03/25 01:26:56;;;;;;;46.80;28.00;;;;;;;0.21;67.73;101504.39;88069;1278;83072;-63
2022/03/25 01:29:25;;;;;;;41.60;27.60;;;;;;;0.13;67.76;101503.62;88093;1277;97994;-64
2022/03/25 01:32:23;;;;;;;46.10;28.70;;;;;;;0.12;67.69;101509.48;88104;1277;86425;-63
2022/03/25 01:34:46;;;;;;;52.40;29.40;;;;;;;0.13;67.87;101508.77;88105;1278;94245;-67
2022/03/25 01:37:03;;;;;;;46.20;27.60;;;;;;;0.09;67.88;101507.77;88048;1278;78901;-67
2022/03/25 01:39:12;;;;;;;50.20;28.90;;;;;;;0.06;68.31;101510.80;88030;1278;82714;-66
2022/03/25 01:41:48;;;;;;;47.70;29.80;;;;;;;0.06;68.32;101508.32;88064;1278;97905;-65
2022/03/25 01:44:04;;;;;;;52.10;30.30;;;;;;;0.06;68.46;101510.80;88035;1278;89952;-63
2022/03/25 01:46:13;;;;;;;47.10;29.20;;;;;;;0.06;68.50;101513.58;88047;1279;95852;-63
2022/03/25 01:48:23;;;;;;;45.50;29.50;;;;;;;0.09;68.40;101515.18;88053;1277;77420;-66
2022/03/25 01:50:33;;;;;;;47.40;29.60;;;;;;;0.10;68.29;101509.48;88069;1279;82974;-65
2022/03/25 01:53:09;;;;;;;47.70;27.80;;;;;;;0.12;68.43;101510.90;88077;1278;99461;-66
2022/03/25 01:55:59;;;;;;;50.10;28.00;;;;;;;0.14;68.29;101507.23;88059;1279;89083;-67
2022/03/25 01:58:16;;;;;;;42.50;25.90;;;;;;;0.12;68.32;101509.52;87996;1279;95080;-65
2022/03/25 02:00:28;;;;;;;47.30;28.40;;;;;;;0.06;68.38;101505.14;87973;1279;77590;-63
2022/03/25 02:02:56;;;;;;;43.40;26.40;;;;;;;0.00;68.54;101513.60;87825;1281;81110;-63
2022/03/25 02:05:06;;;;;;;46.80;27.00;;;;;;;-0.06;68.58;101509.73;87968;1279;99535;-63
2022/03/25 02:07:15;;;;;;;46.20;27.00;;;;;;;-0.11;68.71;101507.77;87978;1279;85573;-63
2022/03/25 02:09:26;;;;;;;46.80;27.10;;;;;;;-0.14;68.59;101504.77;87992;1279;96140;-66
2022/03/25 02:11:35;;;;;;;46.70;26.90;;;;;;;-0.17;68.72;101505.32;87977;1279;80645;-69
2022/03/25 02:13:44;;;;;;;44.10;25.10;;;;;;;-0.17;68.94;101506.58;87992;1279;83222;-63
2022/03/25 02:15:55;;;;;;;44.20;25.10;;;;;;;-0.20;68.99;101506.03;87940;1279;97824;-64
2022/03/25 02:18:08;;;;;;;43.90;26.30;;;;;;;-0.19;68.97;101511.94;87902;1281;89568;-66
2022/03/25 02:20:35;;;;;;;39.30;25.00;;;;;;;-0.17;69.14;101511.65;87979;1279;95480;-67
2022/03/25 02:23:09;;;;;;;48.00;28.00;;;;;;;-0.14;68.97;101506.05;87968;1279;78067;-64
2022/03/25 02:25:23;;;;;;;49.10;29.20;;;;;;;-0.16;69.44;101513.90;88098;1278;83227;-65
2022/03/25 02:27:35;;;;;;;44.50;28.20;;;;;;;-0.17;69.36;101510.80;88053;1279;98277;-64
2022/03/25 02:29:44;;;;;;;47.30;28.00;;;;;;;-0.20;69.41;101512.23;88099;1278;88008;-67
2022/03/25 02:31:53;;;;;;;45.80;28.40;;;;;;;-0.22;69.50;101513.80;88079;1279;94635;-66
2022/03/25 02:34:54;;;;;;;49.40;28.40;;;;;;;-0.27;69.40;101516.21;87965;1279;79158;-65
2022/03/25 02:37:05;;;;;;;47.10;29.40;;;;;;;-0.29;69.30;101513.15;88059;1279;81920;-65
2022/03/25 02:39:15;;;;;;;44.10;26.30;;;;;;;-0.31;69.52;101515.92;88046;1279;99304;-66
2022/03/25 02:41:57;;;;;;;44.50;27.50;;;;;;;-0.34;69.39;101520.01;88010;1279;90945;-65
2022/03/25 02:44:07;;;;;;;44.40;26.90;;;;;;;-0.39;69.66;101521.73;88018;1279;95951;-66
2022/03/25 02:46:17;;;;;;;48.10;29.20;;;;;;;-0.45;69.96;101522.81;88053;1278;79250;-66
2022/03/25 02:48:27;;;;;;;46.80;27.80;;;;;;;-0.50;70.01;101525.02;88045;1279;81373;-69
2022/03/25 02:50:36;;;;;;;42.30;26.20;;;;;;;-0.48;69.78;101524.90;88036;1278;99707;-68
2022/03/25 02:52:46;;;;;;;46.40;28.50;;;;;;;-0.42;70.04;101525.42;88038;1279;86009;-67
2022/03/25 02:54:55;;;;;;;48.10;28.20;;;;;;;-0.39;70.06;101529.14;88055;1278;94522;-67
2022/03/25 02:57:04;;;;;;;45.60;29.40;;;;;;;-0.36;69.97;101529.52;88009;1281;78632;-67
2022/03/25 02:59:13;;;;;;;50.80;27.70;;;;;;;-0.34;69.80;101530.61;88070;1279;82146;-65
2022/03/25 03:01:23;;;;;;;46.80;28.80;;;;;;;-0.33;69.78;101534.59;88036;1278;96613;-66
2022/03/25 03:03:35;;;;;;;40.70;26.50;;;;;;;-0.33;69.92;101532.15;88014;1279;88335;-66
2022/03/25 03:05:44;;;;;;;46.20;27.30;;;;;;;-0.34;69.81;101535.38;88049;1278;94911;-65
2022/03/25 03:07:54;;;;;;;49.60;27.60;;;;;;;-0.35;69.94;101534.40;88024;1279;77647;-65
2022/03/25 03:10:03;;;;;;;43.20;25.40;;;;;;;-0.38;69.98;101537.21;88051;1279;82404;-65
2022/03/25 03:12:13;;;;;;;41.00;24.90;;;;;;;-0.41;69.97;101539.52;87986;1279;97532;-65
2022/03/25 03:14:22;;;;;;;44.40;26.30;;;;;;;-0.45;70.10;101540.67;88046;1277;88719;-65
2022/03/25 03:16:32;;;;;;;42.00;25.60;;;;;;;-0.50;70.09;101537.98;88026;1279;95373;-65
2022/03/25 03:18:41;;;;;;;41.80;24.70;;;;;;;-0.51;69.92;101541.02;88006;1278;81469;-69
2022/03/25 03:20:50;;;;;;;35.80;23.20;;;;;;;-0.48;70.20;101542.60;88034;1279;79557;-68
2022/03/25 03:23:00;;;;;;;40.90;23.70;;;;;;;-0.47;70.04;101539.56;88061;1278;99874;-68
2022/03/25 03:25:11;;;;;;;39.20;23.90;;;;;;;-0.51;70.08;101536.77;88080;1278;87095;-70
2022/03/25 03:27:20;;;;;;;43.20;24.00;;;;;;;-0.54;70.47;101541.58;88013;1279;95101;-67
2022/03/25 03:29:30;;;;;;;40.60;24.60;;;;;;;-0.54;70.48;101542.97;88056;1278;77726;-69
2022/03/25 03:31:39;;;;;;;38.20;23.60;;;;;;;-0.54;70.46;101545.82;87672;1279;516037;-70
2022/03/25 03:33:48;;;;;;;38.40;23.40;;;;;;;-0.55;70.39;101545.37;88035;1278;99544;-65
2022/03/25 03:35:58;;;;;;;39.30;23.00;;;;;;;-0.59;70.76;101543.95;88029;1279;88433;-65
2022/03/25 03:38:07;;;;;;;40.50;24.60;;;;;;;-0.66;70.54;101540.09;88024;1278;95742;-65
2022/03/25 03:40:17;;;;;;;36.90;23.00;;;;;;;-0.69;70.68;101543.48;88016;1279;78712;-66
2022/03/25 03:42:27;;;;;;;36.90;23.50;;;;;;;-0.72;70.46;101542.05;88053;1279;82458;-65
2022/03/25 03:44:40;;;;;;;37.30;22.10;;;;;;;-0.75;70.52;101545.07;88023;1279;100151;-69
2022/03/25 03:46:50;;;;;;;37.40;23.20;;;;;;;-0.75;70.51;101547.01;88045;1278;88468;-69
2022/03/25 03:49:04;;;;;;;38.30;22.40;;;;;;;-0.74;70.76;101543.95;88043;1278;95314;-64
2022/03/25 03:51:13;;;;;;;39.60;21.70;;;;;;;-0.72;70.61;101544.00;88069;1278;79084;-66
2022/03/25 03:53:22;;;;;;;41.50;21.90;;;;;;;-0.69;70.83;101547.52;88042;1279;82336;-64
2022/03/25 03:55:31;;;;;;;37.80;23.60;;;;;;;-0.65;70.91;101545.70;88031;1278;99578;-64
2022/03/25 03:57:41;;;;;;;39.80;23.00;;;;;;;-0.67;70.77;101546.02;88066;1278;88323;-65
2022/03/25 03:59:50;;;;;;;35.20;22.10;;;;;;;-0.70;71.01;101542.67;88039;1279;95497;-65
2022/03/25 04:02:04;;;;;;;41.10;24.00;;;;;;;-0.71;70.95;101543.09;88041;1279;81537;-65
2022/03/25 04:04:13;;;;;;;42.70;23.80;;;;;;;-0.70;71.01;101551.48;88038;1278;81147;-65
2022/03/25 04:06:22;;;;;;;37.80;22.90;;;;;;;-0.68;70.82;101549.45;88033;1279;99384;-65
2022/03/25 04:08:31;;;;;;;43.10;24.70;;;;;;;-0.70;71.28;101553.27;88064;1278;88059;-69
2022/03/25 04:10:43;;;;;;;40.50;23.30;;;;;;;-0.76;71.14;101554.84;88017;1279;92350;-69
2022/03/25 04:12:55;;;;;;;36.20;23.00;;;;;;;-0.80;71.11;101553.66;88044;1277;78788;-69
2022/03/25 04:15:05;;;;;;;43.50;24.10;;;;;;;-0.84;71.12;101556.92;88084;1277;82023;-65
2022/03/25 04:17:15;;;;;;;42.40;24.90;;;;;;;-0.84;71.23;101557.98;88007;1279;97940;-65
2022/03/25 04:19:24;;;;;;;40.00;25.00;;;;;;;-0.88;71.21;101560.20;87997;1279;88021;-69
2022/03/25 04:21:32;;;;;;;47.20;24.10;;;;;;;-0.89;71.41;101559.36;88052;1279;93093;-70
2022/03/25 04:23:42;;;;;;;39.50;24.50;;;;;;;-0.88;71.26;101561.41;88044;1278;81841;-65
2022/03/25 04:25:51;;;;;;;38.20;22.60;;;;;;;-0.85;71.34;101563.02;88026;1279;81097;-66
2022/03/25 04:28:02;;;;;;;41.30;23.60;;;;;;;-0.81;71.41;101557.48;88068;1278;98491;-68
2022/03/25 04:30:12;;;;;;;36.50;23.60;;;;;;;-0.81;71.52;101562.08;88060;1278;88366;-70
2022/03/25 04:32:21;;;;;;;39.30;24.40;;;;;;;-0.78;71.62;101560.11;88015;1279;95610;-70
2022/03/25 04:34:31;;;;;;;38.30;23.80;;;;;;;-0.74;71.35;101558.84;88062;1277;77399;-66
2022/03/25 04:36:42;;;;;;;37.80;24.30;;;;;;;-0.67;71.49;101558.94;88028;1279;80158;-66
2022/03/25 04:38:51;;;;;;;37.90;23.00;;;;;;;-0.67;71.42;101558.23;88065;1278;99334;-70
2022/03/25 04:41:00;;;;;;;36.90;23.20;;;;;;;-0.67;71.45;101559.09;88047;1279;87527;-70
2022/03/25 04:43:12;;;;;;;37.60;23.20;;;;;;;-0.68;71.63;101559.55;88053;1278;95937;-66
2022/03/25 04:45:23;;;;;;;39.20;24.50;;;;;;;-0.73;71.50;101559.83;88014;1279;78312;-65
2022/03/25 04:47:32;;;;;;;38.80;23.70;;;;;;;-0.71;71.59;101562.34;88088;1278;81334;-65
2022/03/25 04:49:41;;;;;;;38.40;23.80;;;;;;;-0.68;71.50;101561.32;88022;1279;97803;-65
2022/03/25 04:51:50;;;;;;;42.10;23.70;;;;;;;-0.67;71.52;101561.42;88054;1278;89232;-65
2022/03/25 04:54:00;;;;;;;37.60;22.50;;;;;;;-0.65;71.54;101560.58;88001;1279;94654;-65
2022/03/25 04:56:09;;;;;;;41.90;24.10;;;;;;;-0.59;71.72;101562.21;88045;1278;81194;-65
2022/03/25 04:58:19;;;;;;;39.50;23.20;;;;;;;-0.53;71.54;101560.80;88021;1279;83028;-67
2022/03/25 05:00:29;;;;;;;35.70;23.50;;;;;;;-0.47;71.66;101562.73;88081;1279;99616;-68
2022/03/25 05:02:41;;;;;;;41.10;23.50;;;;;;;-0.37;71.67;101564.93;88055;1278;89837;-69
2022/03/25 05:04:50;;;;;;;41.50;23.40;;;;;;;-0.30;71.59;101562.78;88018;1279;95441;-71
2022/03/25 05:06:59;;;;;;;40.20;25.30;;;;;;;-0.23;71.38;101565.33;88046;1277;77495;-70
2022/03/25 05:09:10;;;;;;;39.80;24.30;;;;;;;-0.16;71.50;101568.48;88029;1279;82750;-66
2022/03/25 05:11:23;;;;;;;39.90;24.70;;;;;;;0.07;71.52;101563.84;88049;1278;99223;-65
2022/03/25 05:13:33;;;;;;;40.30;25.60;;;;;;;0.87;71.57;101561.75;88034;1278;86504;-69
2022/03/25 05:15:42;;;;;;;43.60;27.20;;;;;;;1.95;70.73;101562.23;88064;1278;94030;-68
2022/03/25 05:17:53;;;;;;;40.40;27.00;;;;;;;2.85;69.98;101563.25;88009;1279;78056;-68
2022/03/25 05:20:09;;;;;;;39.20;26.80;;;;;;;3.61;69.05;101561.77;88075;1279;81608;-69
2022/03/25 05:22:19;;;;;;;40.50;26.70;;;;;;;4.42;68.44;101553.83;88039;1279;99714;-69
2022/03/25 05:24:28;;;;;;;38.70;26.10;;;;;;;5.17;67.32;101553.01;88034;1277;88883;-64
2022/03/25 05:26:38;;;;;;;37.20;26.30;;;;;;;5.74;66.16;101553.16;88064;1278;94581;-65
2022/03/25 05:28:47;;;;;;;35.00;25.00;;;;;;;5.74;65.35;101554.09;88066;1278;77573;-69
2022/03/25 05:30:57;;;;;;;33.70;24.30;;;;;;;5.30;65.14;101554.84;88050;1278;81844;-69
2022/03/25 05:33:09;;;;;;;36.40;24.40;;;;;;;4.79;64.58;101556.70;88032;1279;99127;-65
2022/03/25 05:35:20;;;;;;;34.60;24.10;;;;;;;4.36;64.55;101561.48;88066;1278;87256;-66
2022/03/25 05:37:29;;;;;;;33.40;23.30;;;;;;;4.04;64.41;101562.16;88014;1279;94362;-64
2022/03/25 05:39:38;;;;;;;33.80;23.70;;;;;;;3.78;64.49;101559.44;88043;1278;79078;-66
2022/03/25 05:41:47;;;;;;;33.00;23.10;;;;;;;3.60;64.69;101560.84;88043;1279;82202;-67
2022/03/25 05:43:56;;;;;;;35.80;25.00;;;;;;;3.41;64.97;101566.37;88066;1278;99809;-66
2022/03/25 05:46:06;;;;;;;35.40;23.50;;;;;;;3.34;64.98;101565.48;88030;1279;87313;-69
2022/03/25 05:48:23;;;;;;;39.30;23.10;;;;;;;3.33;65.00;101568.40;88074;1278;93558;-64
2022/03/25 05:50:42;;;;;;;33.00;22.30;;;;;;;3.36;65.09;101565.67;88004;1279;77883;-62
2022/03/25 05:52:55;;;;;;;32.90;22.70;;;;;;;3.67;65.35;101568.42;88061;1279;82476;-63
2022/03/25 05:55:06;;;;;;;31.10;23.40;;;;;;;5.04;65.20;101559.84;88023;1280;97819;-64
2022/03/25 05:57:15;;;;;;;32.20;21.80;;;;;;;6.88;65.00;101557.41;88044;1279;85689;-64
2022/03/25 05:59:25;;;;;;;31.20;22.30;;;;;;;8.46;63.47;101554.45;88035;1279;93175;-63
2022/03/25 06:01:35;;;;;;;29.30;21.20;;;;;;;9.87;61.63;101554.52;88040;1278;78224;-66
2022/03/25 06:03:45;;;;;;;28.90;19.80;;;;;;;11.00;60.16;101547.05;88021;1279;82255;-64
2022/03/25 06:05:54;;;;;;;24.90;20.40;;;;;;;12.07;58.54;101550.28;88057;1278;98808;-65
2022/03/25 06:08:03;;;;;;;29.10;21.90;;;;;;;12.84;56.97;101542.83;88049;1279;88821;-64
2022/03/25 06:10:16;;;;;;;35.40;24.50;;;;;;;13.74;56.42;101544.34;88021;1279;93341;-62
2022/03/25 06:12:27;;;;;;;35.60;25.60;;;;;;;14.57;54.53;101541.73;88026;1277;79090;-64
2022/03/25 06:14:36;;;;;;;36.10;25.60;;;;;;;15.24;53.03;101540.93;88058;1279;80906;-64
2022/03/25 06:16:45;;;;;;;34.30;25.20;;;;;;;15.75;52.08;101543.45;88026;1278;100301;-62
2022/03/25 06:18:55;;;;;;;35.50;24.00;;;;;;;16.14;50.96;101541.77;88048;1279;86849;-61
2022/03/25 06:21:06;;;;;;;28.10;22.20;;;;;;;16.52;49.74;101537.82;88053;1278;94531;-64
2022/03/25 06:23:16;;;;;;;28.20;20.90;;;;;;;16.92;48.96;101534.28;88022;1279;78358;-65
2022/03/25 06:25:29;;;;;;;26.40;19.50;;;;;;;17.42;47.48;101530.91;88079;1278;82645;-68
2022/03/25 06:27:45;;;;;;;27.10;19.90;;;;;;;17.75;46.57;101535.17;88030;1281;98746;-67
2022/03/25 06:29:54;;;;;;;24.60;19.90;;;;;;;17.79;45.03;101539.13;88060;1278;87346;-63
2022/03/25 06:32:26;;;;;;;27.70;19.40;;;;;;;17.83;44.29;101541.44;88009;1281;96155;-64
2022/03/25 06:34:44;;;;;;;30.20;21.50;;;;;;;18.42;44.21;101539.89;88096;1277;81083;-63
2022/03/25 06:36:54;;;;;;;27.70;20.50;;;;;;;18.81;43.33;101543.64;88096;1277;80221;-64
2022/03/25 06:39:04;;;;;;;28.30;21.70;;;;;;;18.61;41.93;101542.41;88126;1277;98314;-67
2022/03/25 06:41:15;;;;;;;27.40;21.30;;;;;;;17.66;41.20;101548.69;88134;1277;88064;-67
2022/03/25 06:44:08;;;;;;;26.50;20.90;;;;;;;17.49;41.13;101547.72;88068;1278;94256;-67
2022/03/25 06:46:22;;;;;;;25.80;20.00;;;;;;;17.76;41.25;101551.71;88108;1277;79147;-67
2022/03/25 06:48:34;;;;;;;23.20;20.60;;;;;;;18.97;40.48;101549.95;88104;1277;81365;-66
2022/03/25 06:50:47;;;;;;;24.90;19.90;;;;;;;19.73;39.63;101549.98;88108;1277;98962;-67
2022/03/25 06:53:02;;;;;;;30.80;21.20;;;;;;;20.55;38.84;101547.01;88113;1278;88333;-67
2022/03/25 06:55:15;;;;;;;25.50;20.80;;;;;;;21.15;37.73;101542.88;88103;1278;94804;-64
2022/03/25 06:57:27;;;;;;;25.00;21.10;;;;;;;21.79;36.74;101542.36;88051;1277;79056;-65
2022/03/25 06:59:41;;;;;;;26.30;19.70;;;;;;;22.20;36.27;101542.94;88099;1277;82926;-63
2022/03/25 07:01:52;;;;;;;24.10;19.40;;;;;;;22.60;35.53;101545.16;88128;1277;99893;-62
2022/03/25 07:04:05;;;;;;;24.40;20.20;;;;;;;22.88;34.60;101542.02;88141;1277;89349;-64
2022/03/25 07:06:17;;;;;;;23.70;20.70;;;;;;;22.78;33.57;101543.63;88121;1277;95858;-64
2022/03/25 07:08:30;;;;;;;24.90;20.20;;;;;;;22.65;33.45;101544.86;88052;1277;79835;-64
2022/03/25 07:10:42;;;;;;;24.90;20.50;;;;;;;23.04;33.13;101544.89;88125;1278;83406;-64
2022/03/25 07:12:53;;;;;;;25.20;21.10;;;;;;;23.60;32.54;101548.74;88067;1277;100012;-64
2022/03/25 07:15:02;;;;;;;25.90;23.20;;;;;;;23.82;31.72;101547.51;88089;1277;88747;-65
2022/03/25 07:17:12;;;;;;;27.80;23.80;;;;;;;24.41;30.91;101545.54;88061;1277;93903;-64
2022/03/25 07:19:25;;;;;;;27.00;22.30;;;;;;;24.64;29.29;101539.88;88121;1277;79035;-66
2022/03/25 07:21:32;;;;;;;;;;;;;;;25.23;28.73;101541.79;88063;1277;80563;-67
2022/03/25 07:23:43;;;;;;;26.30;20.60;;;;;;;25.04;28.48;101543.70;88099;1278;100150;-63
2022/03/25 07:25:51;;;;;;;24.10;21.40;;;;;;;24.90;28.12;101548.06;88058;1277;88262;-65
2022/03/25 07:28:05;;;;;;;22.80;20.20;;;;;;;25.06;28.13;101550.14;88046;1278;95295;-65
2022/03/25 07:30:17;;;;;;;23.80;19.50;;;;;;;25.81;27.60;101549.38;88111;1277;76886;-65
2022/03/25 07:32:27;;;;;;;19.40;17.40;;;;;;;26.22;26.74;101553.65;88140;1277;82037;-65
2022/03/25 07:34:38;;;;;;;23.40;17.80;;;;;;;26.63;26.43;101556.54;88033;1277;100236;-63
2022/03/25 07:36:47;;;;;;;18.30;16.20;;;;;;;26.64;26.23;101556.33;88090;1277;86885;-64
2022/03/25 07:39:06;;;;;;;20.00;17.00;;;;;;;26.89;25.90;101551.34;88053;1277;94958;-63
2022/03/25 07:41:19;;;;;;;20.50;17.00;;;;;;;27.32;25.39;101553.14;88112;1277;77494;-64
2022/03/25 07:43:32;;;;;;;18.90;16.60;;;;;;;27.46;24.58;101550.48;88075;1277;81200;-67
2022/03/25 07:45:41;;;;;;;21.60;16.60;;;;;;;26.99;24.77;101551.40;88108;1277;98922;-67
2022/03/25 07:47:51;;;;;;;20.10;16.50;;;;;;;26.97;24.94;101550.16;88021;1277;89706;-67
2022/03/25 07:50:00;;;;;;;17.50;15.60;;;;;;;27.12;24.19;101550.13;88108;1277;95687;-67
2022/03/25 07:52:12;;;;;;;19.00;16.00;;;;;;;26.91;24.22;101543.77;88065;1277;78569;-66
2022/03/25 07:54:21;;;;;;;18.50;16.10;;;;;;;27.24;24.10;101547.13;88088;1277;80465;-64
2022/03/25 07:56:29;;;;;;;21.00;16.70;;;;;;;27.47;24.06;101547.22;88038;1277;99698;-65
2022/03/25 07:58:39;;;;;;;19.30;17.10;;;;;;;27.87;23.36;101545.02;88129;1277;89039;-65
2022/03/25 08:00:52;;;;;;;19.00;15.80;;;;;;;28.11;23.34;101548.95;88047;1277;95276;-65
2022/03/25 08:03:01;;;;;;;21.90;16.60;;;;;;;27.70;23.11;101553.00;88095;1278;78441;-64
2022/03/25 08:05:13;;;;;;;18.40;16.30;;;;;;;26.93;22.60;101550.84;88072;1277;82122;-65
2022/03/25 08:07:23;;;;;;;19.60;17.40;;;;;;;26.97;23.08;101547.16;88101;1277;99931;-65
2022/03/25 08:09:34;;;;;;;19.10;16.20;;;;;;;27.17;22.94;101555.65;88090;1277;87454;-65
2022/03/25 08:11:45;;;;;;;21.10;15.60;;;;;;;27.31;22.96;101551.38;88107;1277;95588;-65
2022/03/25 08:13:59;;;;;;;19.40;15.60;;;;;;;28.04;22.03;101555.77;88077;1277;80753;-66
2022/03/25 08:16:16;;;;;;;19.00;16.60;;;;;;;28.06;22.51;101553.02;88098;1277;83651;-64
2022/03/25 08:18:27;;;;;;;26.10;16.90;;;;;;;27.77;22.27;101555.63;88143;1277;98883;-65
2022/03/25 08:20:39;;;;;;;19.50;16.70;;;;;;;27.67;22.06;101555.04;88141;1278;88265;-67
2022/03/25 08:22:48;;;;;;;17.60;15.50;;;;;;;27.78;22.18;101551.86;88081;1277;94633;-65
2022/03/25 08:29:55;;;;;;;14.40;12.90;;;;;;;28.57;22.14;101548.61;88119;1277;100344;-67
2022/03/25 08:32:16;;;;;;;18.60;13.60;;;;;;;28.18;21.95;101546.83;88069;1277;87034;-66
2022/03/25 08:34:25;;;;;;;16.70;13.00;;;;;;;27.95;22.05;101546.88;88103;1277;93879;-66
2022/03/25 08:36:35;;;;;;;13.70;12.30;;;;;;;28.25;21.82;101549.96;88082;1277;79247;-67
2022/03/25 08:38:44;;;;;;;17.80;13.20;;;;;;;28.27;21.78;101553.57;88099;1277;83572;-66
2022/03/25 08:40:53;;;;;;;15.20;13.60;;;;;;;28.36;21.70;101555.17;88101;1277;100549;-66
2022/03/25 08:43:07;;;;;;;14.80;12.90;;;;;;;28.55;21.36;101551.98;88127;1278;88286;-66
2022/03/25 08:45:16;;;;;;;15.70;13.50;;;;;;;28.58;21.29;101550.50;88115;1276;94206;-66
2022/03/25 08:47:26;;;;;;;17.10;13.30;;;;;;;28.51;21.24;101553.50;88061;1278;78819;-66
2022/03/25 08:49:39;;;;;;;14.60;13.10;;;;;;;28.18;21.38;101550.02;88070;1277;83432;-70
2022/03/25 08:51:49;;;;;;;17.30;12.80;;;;;;;27.98;21.19;101549.11;88128;1278;99739;-66
2022/03/25 08:54:02;;;;;;;15.00;12.60;;;;;;;27.86;21.16;101547.20;88137;1277;89329;-66
2022/03/25 08:56:13;;;;;;;15.40;13.50;;;;;;;27.75;21.14;101541.73;88049;1277;95489;-67
2022/03/25 08:58:22;;;;;;;16.80;13.20;;;;;;;27.34;21.12;101543.55;88123;1277;78050;-66
2022/03/25 09:00:32;;;;;;;15.70;13.40;;;;;;;26.97;21.38;101536.30;88067;1277;82109;-65
2022/03/25 09:02:43;;;;;;;15.30;13.20;;;;;;;27.60;21.35;101535.05;88134;1277;98454;-66
2022/03/25 09:04:53;;;;;;;14.90;13.10;;;;;;;27.93;21.16;101535.70;88101;1278;89358;-65
2022/03/25 09:07:06;;;;;;;15.50;13.80;;;;;;;28.16;21.54;101536.67;88116;1277;95623;-66
2022/03/25 09:09:15;;;;;;;16.30;13.20;;;;;;;28.27;21.24;101535.12;88076;1278;77409;-65
2022/03/25 09:11:24;;;;;;;15.60;13.30;;;;;;;28.56;20.85;101538.64;88117;1278;81311;-63
2022/03/25 09:13:34;;;;;;;16.80;14.00;;;;;;;28.69;20.63;101537.30;88084;1277;99451;-67
2022/03/25 09:16:09;;;;;;;18.60;14.30;;;;;;;28.52;20.94;101536.25;88092;1277;88458;-65
2022/03/25 09:18:25;;;;;;;15.60;13.00;;;;;;;28.57;20.85;101535.68;88077;1277;95772;-65
2022/03/25 09:20:35;;;;;;;18.30;14.80;;;;;;;28.78;20.64;101535.89;88112;1277;81234;-66
2022/03/25 09:22:47;;;;;;;16.40;14.00;;;;;;;29.06;20.23;101528.60;88071;1277;83058;-65
2022/03/25 09:25:01;;;;;;;16.20;13.40;;;;;;;28.94;20.40;101528.77;88144;1276;99757;-66
2022/03/25 09:27:10;;;;;;;16.60;13.80;;;;;;;29.09;20.65;101532.88;88100;1277;89316;-67
2022/03/25 09:29:22;;;;;;;16.50;13.70;;;;;;;29.03;20.17;101531.40;88046;1277;93234;-65
2022/03/25 09:31:33;;;;;;;16.20;14.10;;;;;;;28.62;20.31;101532.64;88113;1277;77320;-64
2022/03/25 09:33:42;;;;;;;16.10;14.40;;;;;;;28.36;20.56;101525.10;88095;1278;80827;-66
2022/03/25 09:35:52;;;;;;;17.60;14.70;;;;;;;28.28;20.50;101521.45;88123;1277;99816;-65
2022/03/25 09:38:01;;;;;;;15.20;13.50;;;;;;;28.33;20.40;101517.38;88052;1277;88646;-64
2022/03/25 09:40:14;;;;;;;19.30;14.20;;;;;;;27.94;19.97;101513.59;88058;1277;96932;-64
2022/03/25 09:42:21;;;;;;;;;;;;;;;27.74;20.39;101511.45;88123;1278;78734;-64
2022/03/25 09:44:32;;;;;;;17.10;14.60;;;;;;;27.24;20.73;101507.88;88136;1277;81562;-64
2022/03/25 09:46:45;;;;;;;15.70;14.10;;;;;;;26.78;20.93;101505.30;88039;1277;100168;-62
2022/03/25 09:48:54;;;;;;;16.10;13.30;;;;;;;26.63;21.11;101505.53;88118;1277;87961;-64
2022/03/25 09:51:03;;;;;;;16.30;13.30;;;;;;;26.38;21.16;101507.06;88111;1277;94986;-69
2022/03/25 09:53:13;;;;;;;16.70;13.10;;;;;;;25.64;21.28;101506.34;88056;1277;78539;-64
2022/03/25 09:55:23;;;;;;;14.60;13.10;;;;;;;25.08;21.44;101504.87;88099;1277;83597;-63
2022/03/25 09:57:33;;;;;;;16.40;13.60;;;;;;;24.79;21.92;101509.41;88052;1277;99244;-64
2022/03/25 09:59:43;;;;;;;18.00;14.00;;;;;;;24.52;22.36;101507.20;88134;1278;89082;-64
2022/03/25 10:01:51;;;;;;;17.70;14.00;;;;;;;24.19;22.40;101509.23;88054;1277;95198;-65
2022/03/25 10:04:00;;;;;;;17.50;13.00;;;;;;;23.68;22.61;101505.52;88081;1277;79965;-64
2022/03/25 10:06:15;;;;;;;17.90;13.50;;;;;;;23.44;22.75;101500.95;88096;1277;80521;-64
2022/03/25 10:08:34;;;;;;;18.10;13.60;;;;;;;23.26;22.86;101499.25;88153;1277;100435;-63